Time;durP1;ratioP1;P1;durP2;ratioP2;P2;SDS_P1;SDS_P2;PMS_P1;PMS_P2;Temp;Humidity;BMP_temperature;BMP_pressure;BME280_temperature;BME280_humidity;BME280_pressure;Samples;Min_cycle;Max_cycle;Signal;HPM_P1;HPM_P2
2023/12/26 00:00:51;;;;;;;1.70;1.50;;;9.50;1.00;;;;;;5111924;27;21048;-75
2023/12/26 00:03:18;;;;;;;1.83;1.47;;;9.50;1.00;;;;;;5113658;27;20970;-75
2023/12/26 00:05:45;;;;;;;2.33;1.70;;;9.50;1.00;;;;;;5112959;27;20442;-75
2023/12/26 00:08:12;;;;;;;1.93;1.73;;;9.50;1.00;;;;;;5114382;27;20479;-75
2023/12/26 00:10:42;;;;;;;1.70;1.47;;;9.50;1.00;;;;;;5111656;27;20985;-75
2023/12/26 00:13:15;;;;;;;3.20;1.63;;;9.50;1.00;;;;;;5100050;27;21125;-75
2023/12/26 00:15:43;;;;;;;3.77;1.80;;;9.50;1.00;;;;;;5113592;27;21199;-74
2023/12/26 00:18:10;;;;;;;2.97;1.57;;;9.50;1.00;;;;;;5107884;27;20912;-75
2023/12/26 00:20:42;;;;;;;3.00;2.10;;;9.50;1.00;;;;;;5110222;27;20564;-75
2023/12/26 00:23:10;;;;;;;3.30;1.50;;;9.50;1.00;;;;;;5112546;27;20469;-74
2023/12/26 00:25:37;;;;;;;2.80;1.60;;;9.50;1.00;;;;;;5112224;27;20606;-74
2023/12/26 00:28:05;;;;;;;2.37;1.80;;;9.50;1.00;;;;;;5111168;27;21370;-74
2023/12/26 00:30:33;;;;;;;3.90;2.00;;;9.60;1.00;;;;;;5111050;27;20466;-75
2023/12/26 00:33:00;;;;;;;3.53;1.63;;;9.60;1.00;;;;;;5110348;27;20496;-74
2023/12/26 00:35:27;;;;;;;3.80;1.70;;;9.60;1.00;;;;;;5110615;27;20971;-75
2023/12/26 00:37:54;;;;;;;3.03;1.93;;;9.60;1.00;;;;;;5110449;27;20454;-74
2023/12/26 00:40:22;;;;;;;4.27;1.73;;;9.60;1.00;;;;;;5108212;27;21063;-77
2023/12/26 00:42:49;;;;;;;3.40;1.63;;;9.60;1.00;;;;;;5105407;27;20469;-75
2023/12/26 00:45:16;;;;;;;3.27;1.90;;;9.60;1.00;;;;;;5108015;27;20474;-76
2023/12/26 00:47:44;;;;;;;1.60;1.50;;;9.60;1.00;;;;;;5109528;27;20458;-75
2023/12/26 00:50:16;;;;;;;1.70;1.60;;;9.50;1.00;;;;;;5107911;27;20469;-77
2023/12/26 00:52:43;;;;;;;2.90;1.80;;;9.60;1.00;;;;;;5108585;27;21290;-76
2023/12/26 00:55:10;;;;;;;3.50;1.80;;;9.60;1.00;;;;;;5109180;27;20956;-75
2023/12/26 00:57:38;;;;;;;3.93;1.60;;;9.60;1.00;;;;;;5110519;27;21284;-76
2023/12/26 01:00:06;;;;;;;2.67;1.97;;;9.60;1.00;;;;;;5108752;27;21219;-76
2023/12/26 01:02:33;;;;;;;3.10;2.03;;;9.50;1.00;;;;;;5107521;27;20508;-75
2023/12/26 01:05:01;;;;;;;1.80;1.40;;;9.50;1.00;;;;;;5107801;27;20478;-75
2023/12/26 01:07:29;;;;;;;2.63;1.80;;;9.60;1.00;;;;;;5110641;27;20470;-75
2023/12/26 01:09:56;;;;;;;3.73;1.43;;;9.50;1.00;;;;;;5109583;27;20846;-76
2023/12/26 01:12:23;;;;;;;3.53;1.67;;;9.50;1.00;;;;;;5108895;27;20516;-75
2023/12/26 01:14:50;;;;;;;3.87;1.90;;;9.50;1.00;;;;;;5110680;27;21246;-75
2023/12/26 01:17:17;;;;;;;2.53;2.10;;;9.50;1.00;;;;;;5107884;27;20546;-74
2023/12/26 01:19:44;;;;;;;4.07;1.70;;;9.60;1.00;;;;;;5106142;27;20470;-75
2023/12/26 01:22:12;;;;;;;3.67;1.93;;;9.60;1.00;;;;;;5107691;27;20469;-75
2023/12/26 01:24:39;;;;;;;2.40;1.73;;;9.60;1.00;;;;;;5109680;27;20999;-74
2023/12/26 01:27:06;;;;;;;2.00;1.87;;;9.60;1.00;;;;;;5105990;27;20427;-75
2023/12/26 01:29:33;;;;;;;3.60;2.03;;;9.60;1.00;;;;;;5110924;27;20468;-75
2023/12/26 01:32:01;;;;;;;3.60;2.27;;;9.60;1.00;;;;;;5106548;27;20476;-75
2023/12/26 01:34:28;;;;;;;2.97;2.03;;;9.70;1.00;;;;;;5108283;27;21276;-76
2023/12/26 01:36:55;;;;;;;2.77;1.73;;;9.70;1.00;;;;;;5109250;27;20481;-77
2023/12/26 01:39:25;;;;;;;1.43;1.30;;;9.70;1.00;;;;;;5103626;27;20462;-74
2023/12/26 01:41:52;;;;;;;2.83;1.90;;;9.60;1.00;;;;;;5106495;27;20470;-75
2023/12/26 01:44:20;;;;;;;3.23;2.30;;;9.70;1.00;;;;;;5106490;27;20445;-76
2023/12/26 01:46:47;;;;;;;4.43;3.07;;;9.70;1.00;;;;;;5109652;27;22016;-76
2023/12/26 01:49:14;;;;;;;2.93;2.73;;;9.70;1.00;;;;;;5107523;27;20470;-76
2023/12/26 01:51:43;;;;;;;2.47;2.20;;;9.70;1.00;;;;;;5104378;27;20454;-75
2023/12/26 01:54:10;;;;;;;2.00;1.80;;;9.70;1.00;;;;;;5106836;27;20488;-75
2023/12/26 01:56:39;;;;;;;1.47;1.37;;;9.70;1.00;;;;;;5108071;27;20993;-77
2023/12/26 01:59:06;;;;;;;1.60;1.47;;;9.70;1.00;;;;;;5106523;27;20470;-73
2023/12/26 02:01:34;;;;;;;1.50;1.30;;;9.70;1.00;;;;;;5109900;27;21007;-72
2023/12/26 02:04:03;;;;;;;1.97;1.20;;;9.70;1.00;;;;;;5104996;27;20559;-72
2023/12/26 02:06:31;;;;;;;1.30;1.20;;;9.70;1.00;;;;;;5106627;27;20453;-72
2023/12/26 02:08:58;;;;;;;1.10;1.00;;;9.70;1.00;;;;;;5110939;27;20464;-72
2023/12/26 02:11:26;;;;;;;1.40;1.00;;;9.80;1.00;;;;;;5109977;27;20593;-72
2023/12/26 02:13:54;;;;;;;1.40;0.80;;;9.80;1.00;;;;;;5107120;27;20999;-74
2023/12/26 02:16:25;;;;;;;0.80;0.73;;;9.80;1.00;;;;;;5111249;27;20430;-71
2023/12/26 02:18:55;;;;;;;2.03;1.10;;;9.90;1.00;;;;;;5104689;27;20484;-73
2023/12/26 02:21:22;;;;;;;1.30;1.20;;;9.90;1.00;;;;;;5109213;27;21290;-73
2023/12/26 02:23:54;;;;;;;1.20;0.97;;;9.90;1.00;;;;;;5107022;27;20478;-74
2023/12/26 02:26:24;;;;;;;1.40;1.17;;;10.00;1.00;;;;;;5110980;27;21040;-72
2023/12/26 02:28:53;;;;;;;1.63;0.93;;;10.00;1.00;;;;;;5105892;27;20466;-72
2023/12/26 02:31:21;;;;;;;1.60;1.30;;;10.00;1.00;;;;;;5108548;27;20465;-73
2023/12/26 02:33:48;;;;;;;1.20;1.07;;;10.00;1.00;;;;;;5108098;27;20453;-71
2023/12/26 02:36:16;;;;;;;2.00;1.00;;;9.90;1.00;;;;;;5105676;27;20462;-75
2023/12/26 02:38:43;;;;;;;1.93;1.13;;;10.00;1.00;;;;;;5107337;27;20464;-71
2023/12/26 02:41:12;;;;;;;2.37;1.60;;;10.00;1.00;;;;;;5109299;27;20461;-71
2023/12/26 02:43:40;;;;;;;2.07;0.90;;;10.00;1.00;;;;;;5112141;27;20457;-73
2023/12/26 02:46:07;;;;;;;1.40;1.30;;;10.00;1.00;;;;;;5108358;27;20442;-71
2023/12/26 02:48:35;;;;;;;1.20;1.10;;;10.00;1.00;;;;;;5108619;27;20470;-71
2023/12/26 02:51:03;;;;;;;2.50;1.10;;;10.00;1.00;;;;;;5106029;27;20478;-73
2023/12/26 02:53:30;;;;;;;2.13;1.10;;;10.10;1.00;;;;;;5104920;27;20909;-74
2023/12/26 02:55:57;;;;;;;0.90;0.80;;;10.10;1.00;;;;;;5108463;27;20469;-73
2023/12/26 02:58:26;;;;;;;1.00;0.90;;;10.10;1.00;;;;;;5111302;27;20462;-71
2023/12/26 03:00:55;;;;;;;1.07;0.70;;;10.20;1.00;;;;;;5108370;27;20498;-73
2023/12/26 03:03:22;;;;;;;1.77;0.93;;;10.20;1.00;;;;;;5107787;27;20480;-72
2023/12/26 03:05:49;;;;;;;1.30;1.00;;;10.20;1.00;;;;;;5105843;27;20463;-73
2023/12/26 03:08:16;;;;;;;0.77;0.60;;;10.20;1.00;;;;;;5103682;27;20457;-72
2023/12/26 03:10:44;;;;;;;1.03;0.60;;;10.20;1.00;;;;;;5107809;27;20979;-74
2023/12/26 03:13:11;;;;;;;2.70;0.90;;;10.20;1.00;;;;;;5108646;27;20458;-75
2023/12/26 03:15:39;;;;;;;1.20;0.73;;;10.30;1.00;;;;;;5107863;27;20960;-74
2023/12/26 03:18:06;;;;;;;0.93;0.70;;;10.30;1.00;;;;;;5101734;27;20469;-76
2023/12/26 03:20:33;;;;;;;1.87;0.80;;;10.20;1.00;;;;;;5105173;27;20482;-74
2023/12/26 03:23:00;;;;;;;0.70;0.40;;;10.20;1.00;;;;;;5106438;27;20467;-74
2023/12/26 03:25:28;;;;;;;1.77;0.43;;;10.10;1.00;;;;;;5106922;27;20461;-74
2023/12/26 03:27:55;;;;;;;0.90;0.60;;;10.10;1.00;;;;;;5106405;27;21072;-75
2023/12/26 03:30:22;;;;;;;1.00;0.40;;;10.00;1.00;;;;;;5106609;27;20475;-74
2023/12/26 03:32:50;;;;;;;0.50;0.20;;;10.00;1.00;;;;;;5105683;27;20922;-75
2023/12/26 03:35:18;;;;;;;0.80;0.30;;;9.90;1.00;;;;;;5107761;27;20478;-75
2023/12/26 03:37:45;;;;;;;0.70;0.40;;;9.80;1.00;;;;;;5109512;27;20470;-75
2023/12/26 03:40:13;;;;;;;1.33;0.33;;;9.80;1.00;;;;;;5106683;27;20482;-75
2023/12/26 03:42:42;;;;;;;0.70;0.30;;;9.80;1.00;;;;;;5108226;27;20462;-76
2023/12/26 03:45:10;;;;;;;0.67;0.40;;;9.80;1.00;;;;;;5100787;27;20457;-76
2023/12/26 03:47:37;;;;;;;1.10;0.37;;;9.70;1.00;;;;;;5107538;27;20469;-77
2023/12/26 03:50:07;;;;;;;0.70;0.30;;;9.70;1.00;;;;;;5108324;27;20556;-75
2023/12/26 03:52:34;;;;;;;0.50;0.30;;;9.80;1.00;;;;;;5109912;27;20449;-77
2023/12/26 03:55:02;;;;;;;0.60;0.40;;;9.70;1.00;;;;;;5108524;27;20881;-75
2023/12/26 03:57:30;;;;;;;2.00;0.50;;;9.80;1.00;;;;;;5108666;27;20449;-75
2023/12/26 03:59:57;;;;;;;1.40;0.43;;;9.70;1.00;;;;;;5103245;27;20468;-75
2023/12/26 04:02:24;;;;;;;0.80;0.50;;;9.70;1.00;;;;;;5105525;27;20442;-74
2023/12/26 04:04:51;;;;;;;0.70;0.30;;;9.70;1.00;;;;;;5106732;27;20519;-74
2023/12/26 04:07:20;;;;;;;0.70;0.50;;;9.70;1.00;;;;;;5106188;27;20475;-74
2023/12/26 04:09:47;;;;;;;0.80;0.47;;;9.70;1.00;;;;;;5104816;27;20479;-74
2023/12/26 04:12:14;;;;;;;0.70;0.40;;;9.70;1.00;;;;;;5104509;27;20454;-74
2023/12/26 04:14:41;;;;;;;0.60;0.40;;;9.70;1.00;;;;;;5105040;27;20454;-74
2023/12/26 04:17:08;;;;;;;1.57;0.43;;;9.70;1.00;;;;;;5106663;27;20470;-75
2023/12/26 04:19:35;;;;;;;0.57;0.30;;;9.70;1.00;;;;;;5104994;27;20981;-73
2023/12/26 04:22:02;;;;;;;0.60;0.30;;;9.70;1.00;;;;;;5106773;27;20449;-71
2023/12/26 04:24:30;;;;;;;0.57;0.37;;;9.70;1.00;;;;;;5106500;27;20457;-72
2023/12/26 04:26:58;;;;;;;0.60;0.30;;;9.70;1.00;;;;;;5104704;27;21169;-72
2023/12/26 04:29:25;;;;;;;0.90;0.40;;;9.70;1.00;;;;;;5106535;27;20465;-72
2023/12/26 04:31:52;;;;;;;0.70;0.47;;;9.70;1.00;;;;;;5102908;27;20910;-73
2023/12/26 04:34:19;;;;;;;1.23;0.50;;;9.70;1.00;;;;;;5105591;27;20965;-72
2023/12/26 04:36:46;;;;;;;0.70;0.50;;;9.70;1.00;;;;;;5102875;27;20463;-74
2023/12/26 04:39:13;;;;;;;1.07;0.40;;;9.70;1.00;;;;;;5101530;27;20821;-74
2023/12/26 04:41:41;;;;;;;0.67;0.50;;;9.80;1.00;;;;;;5102517;27;20461;-73
2023/12/26 04:44:12;;;;;;;1.07;0.67;;;9.80;1.00;;;;;;5103075;27;20458;-72
2023/12/26 04:46:39;;;;;;;0.90;0.70;;;9.70;1.00;;;;;;5105430;27;20964;-74
2023/12/26 04:49:06;;;;;;;0.60;0.40;;;9.70;1.00;;;;;;5106278;27;20471;-72
2023/12/26 04:51:33;;;;;;;0.80;0.50;;;9.70;1.00;;;;;;5105306;27;20426;-72
2023/12/26 04:54:00;;;;;;;0.83;0.63;;;9.80;1.00;;;;;;5103224;27;21674;-72
2023/12/26 04:56:27;;;;;;;1.60;0.60;;;9.70;1.00;;;;;;5106655;27;20474;-72
2023/12/26 04:58:56;;;;;;;0.70;0.40;;;9.80;1.00;;;;;;5107512;27;20493;-72
2023/12/26 05:01:23;;;;;;;0.80;0.50;;;9.80;1.00;;;;;;5106007;27;20962;-72
2023/12/26 05:03:50;;;;;;;0.70;0.40;;;9.80;1.00;;;;;;5100807;27;21079;-72
2023/12/26 05:06:20;;;;;;;0.80;0.50;;;9.80;1.00;;;;;;5102457;27;20469;-72
2023/12/26 05:08:47;;;;;;;0.80;0.70;;;9.80;1.00;;;;;;5105411;27;20533;-72
2023/12/26 05:11:22;;;;;;;0.80;0.60;;;9.80;1.00;;;;;;5101925;27;20457;-72
2023/12/26 05:13:49;;;;;;;0.70;0.50;;;9.80;1.00;;;;;;5105607;27;21399;-72
2023/12/26 05:16:18;;;;;;;0.70;0.70;;;9.80;1.00;;;;;;5106036;27;21128;-72
2023/12/26 05:18:45;;;;;;;0.97;0.53;;;9.80;1.00;;;;;;5107175;27;20482;-72
2023/12/26 05:21:18;;;;;;;0.80;0.43;;;9.80;1.00;;;;;;5109206;27;20453;-71
2023/12/26 05:23:46;;;;;;;0.70;0.50;;;9.80;1.00;;;;;;5109335;27;20456;-72
2023/12/26 05:26:14;;;;;;;1.00;0.70;;;9.80;1.00;;;;;;5109895;27;20446;-73
2023/12/26 05:28:41;;;;;;;0.90;0.70;;;9.80;1.00;;;;;;5105760;27;20466;-72
2023/12/26 05:31:08;;;;;;;0.80;0.50;;;9.80;1.00;;;;;;5109119;27;20491;-74
2023/12/26 05:33:37;;;;;;;1.17;0.40;;;9.80;1.00;;;;;;5104541;27;20458;-76
2023/12/26 05:36:04;;;;;;;0.60;0.40;;;9.80;1.00;;;;;;5107673;27;20800;-74
2023/12/26 05:38:31;;;;;;;0.60;0.40;;;9.80;1.00;;;;;;5106145;27;21042;-78
2023/12/26 05:40:59;;;;;;;1.00;0.60;;;9.80;1.00;;;;;;5108623;27;20426;-76
2023/12/26 05:43:26;;;;;;;1.17;0.50;;;9.80;1.00;;;;;;5108535;27;20669;-76
2023/12/26 05:45:53;;;;;;;0.80;0.57;;;9.80;1.00;;;;;;5110503;27;20514;-76
2023/12/26 05:48:20;;;;;;;0.80;0.70;;;9.90;1.00;;;;;;5105297;27;20489;-77
2023/12/26 05:50:48;;;;;;;0.60;0.47;;;9.80;1.00;;;;;;5107139;27;21200;-74
2023/12/26 05:53:16;;;;;;;1.10;0.80;;;9.80;1.00;;;;;;5106340;27;20458;-76
2023/12/26 05:55:43;;;;;;;1.80;0.77;;;9.80;1.00;;;;;;5106361;27;21129;-76
2023/12/26 05:58:10;;;;;;;0.70;0.60;;;9.80;1.00;;;;;;5108919;27;21110;-75
2023/12/26 06:00:37;;;;;;;0.87;0.50;;;9.80;1.00;;;;;;5108853;27;20467;-75
2023/12/26 06:03:04;;;;;;;1.73;0.60;;;9.80;1.00;;;;;;5107103;27;20489;-76
2023/12/26 06:05:31;;;;;;;0.73;0.50;;;9.90;1.00;;;;;;5108582;27;20968;-75
2023/12/26 06:08:00;;;;;;;0.90;0.60;;;9.90;1.00;;;;;;5105269;27;20487;-75
2023/12/26 06:10:27;;;;;;;0.77;0.60;;;9.90;1.00;;;;;;5108389;27;20549;-75
2023/12/26 06:12:54;;;;;;;0.83;0.70;;;9.90;1.00;;;;;;5105465;27;20469;-76
2023/12/26 06:15:21;;;;;;;1.00;0.70;;;9.90;1.00;;;;;;5109219;27;20944;-75
2023/12/26 06:17:48;;;;;;;1.50;0.73;;;9.90;1.00;;;;;;5106884;27;20450;-76
2023/12/26 06:20:15;;;;;;;0.80;0.70;;;9.80;1.00;;;;;;5104033;27;20592;-75
2023/12/26 06:22:43;;;;;;;1.07;0.77;;;9.80;1.00;;;;;;5086985;28;20485;-75
2023/12/26 06:25:11;;;;;;;0.70;0.60;;;9.80;1.00;;;;;;5105522;27;20462;-75
2023/12/26 06:27:39;;;;;;;0.97;0.50;;;9.90;1.00;;;;;;5104730;27;21126;-76
2023/12/26 06:30:07;;;;;;;0.97;0.70;;;9.90;1.00;;;;;;5105055;27;20560;-76
2023/12/26 06:32:34;;;;;;;1.33;0.80;;;9.80;1.00;;;;;;5107643;27;20504;-76
2023/12/26 06:35:01;;;;;;;1.10;0.80;;;9.90;1.00;;;;;;5106055;27;20453;-75
2023/12/26 06:37:28;;;;;;;1.07;0.73;;;9.80;1.00;;;;;;5105800;27;20454;-75
2023/12/26 06:39:55;;;;;;;1.40;0.90;;;9.90;1.00;;;;;;5104539;27;20443;-72
2023/12/26 06:42:24;;;;;;;1.07;0.67;;;9.90;1.00;;;;;;5104608;27;20466;-71
2023/12/26 06:44:51;;;;;;;1.10;0.60;;;9.90;1.00;;;;;;5104255;27;20478;-72
2023/12/26 06:47:18;;;;;;;0.90;0.43;;;9.90;1.00;;;;;;5105606;27;20616;-74
2023/12/26 06:49:46;;;;;;;0.60;0.40;;;9.80;1.00;;;;;;5105741;27;20438;-72
2023/12/26 06:52:14;;;;;;;0.80;0.50;;;9.80;1.00;;;;;;5102843;27;20447;-73
2023/12/26 06:54:41;;;;;;;0.70;0.40;;;9.80;1.00;;;;;;5106129;27;20547;-74
2023/12/26 06:57:15;;;;;;;1.30;0.80;;;9.70;1.00;;;;;;5104412;27;20587;-72
2023/12/26 06:59:44;;;;;;;0.80;0.70;;;9.70;1.00;;;;;;5104506;27;20449;-71
2023/12/26 07:02:11;;;;;;;1.33;0.40;;;9.70;1.00;;;;;;5108349;27;20462;-73
2023/12/26 07:04:40;;;;;;;0.77;0.50;;;9.70;1.00;;;;;;5103781;27;20554;-72
2023/12/26 07:07:07;;;;;;;1.20;0.50;;;9.60;1.00;;;;;;5102575;27;20484;-73
2023/12/26 07:09:34;;;;;;;0.70;0.40;;;9.50;1.00;;;;;;5108007;27;20464;-71
2023/12/26 07:12:02;;;;;;;1.57;0.60;;;9.50;1.00;;;;;;5103937;27;20550;-70
2023/12/26 07:14:29;;;;;;;1.50;0.70;;;9.50;1.00;;;;;;5107988;27;20457;-71
2023/12/26 07:16:58;;;;;;;4.23;0.90;;;9.40;1.00;;;;;;5100285;27;20544;-73
2023/12/26 07:19:25;;;;;;;0.87;0.60;;;9.40;1.00;;;;;;5109347;27;20927;-70
2023/12/26 07:21:55;;;;;;;0.80;0.60;;;9.40;1.00;;;;;;5109532;27;20972;-70
2023/12/26 07:24:22;;;;;;;1.10;0.50;;;9.30;1.00;;;;;;5106320;27;20445;-72
2023/12/26 07:26:49;;;;;;;0.90;0.50;;;9.30;1.00;;;;;;5106120;27;21819;-71
2023/12/26 07:29:17;;;;;;;0.90;0.60;;;9.30;1.00;;;;;;5106276;27;20459;-74
2023/12/26 07:31:44;;;;;;;0.70;0.70;;;9.30;1.00;;;;;;5107275;27;20481;-73
2023/12/26 07:34:12;;;;;;;0.90;0.70;;;9.20;1.00;;;;;;5110895;27;22175;-72
2023/12/26 07:36:39;;;;;;;1.17;0.90;;;9.20;1.00;;;;;;5106735;27;20464;-73
2023/12/26 07:39:06;;;;;;;1.57;0.90;;;9.10;1.00;;;;;;5108126;27;20473;-71
2023/12/26 07:41:33;;;;;;;1.30;0.80;;;9.10;1.00;;;;;;5105480;27;21203;-70
2023/12/26 07:44:01;;;;;;;1.10;0.60;;;9.10;1.00;;;;;;5103129;27;20998;-71
2023/12/26 07:46:28;;;;;;;1.40;0.80;;;9.00;1.00;;;;;;5108305;27;20480;-73
2023/12/26 07:48:55;;;;;;;1.00;0.83;;;9.00;1.00;;;;;;5104907;27;20458;-72
2023/12/26 07:51:24;;;;;;;1.13;0.80;;;9.00;1.00;;;;;;5108844;27;22078;-72
2023/12/26 07:53:51;;;;;;;3.23;0.90;;;9.10;1.00;;;;;;5104882;27;21795;-73
2023/12/26 07:56:18;;;;;;;1.00;0.80;;;9.10;1.00;;;;;;5105280;27;21298;-75
2023/12/26 07:58:45;;;;;;;1.13;0.90;;;9.10;1.00;;;;;;5103482;27;20449;-71
2023/12/26 08:01:13;;;;;;;3.10;0.60;;;9.10;1.00;;;;;;5107480;27;20448;-71
2023/12/26 08:03:40;;;;;;;2.13;1.00;;;9.20;1.00;;;;;;5105685;27;20462;-72
2023/12/26 08:06:07;;;;;;;2.13;0.87;;;9.20;1.00;;;;;;5100603;27;20555;-71
2023/12/26 08:08:36;;;;;;;1.30;1.00;;;9.20;1.00;;;;;;5104328;27;20993;-72
2023/12/26 08:11:03;;;;;;;0.97;0.73;;;9.10;1.00;;;;;;5101823;27;20922;-72
2023/12/26 08:13:30;;;;;;;1.37;0.80;;;9.20;1.00;;;;;;5101357;27;20462;-71
2023/12/26 08:15:57;;;;;;;1.63;0.97;;;9.20;1.00;;;;;;5103747;27;21263;-72
2023/12/26 08:18:24;;;;;;;0.97;0.83;;;9.20;1.00;;;;;;5108297;27;20519;-72
2023/12/26 08:20:51;;;;;;;1.77;1.37;;;9.10;1.00;;;;;;5108093;27;20576;-72
2023/12/26 08:23:18;;;;;;;1.60;1.00;;;9.10;1.00;;;;;;5107560;27;20450;-72
2023/12/26 08:25:47;;;;;;;0.80;0.70;;;9.20;1.00;;;;;;5106749;27;20461;-72
2023/12/26 08:28:14;;;;;;;2.53;1.07;;;9.20;1.00;;;;;;5110166;27;20474;-72
2023/12/26 08:30:41;;;;;;;1.00;0.67;;;9.10;1.00;;;;;;5107777;27;20533;-74
2023/12/26 08:33:08;;;;;;;2.13;0.77;;;9.10;1.00;;;;;;5105151;27;20457;-73
2023/12/26 08:35:35;;;;;;;1.60;1.03;;;9.10;1.00;;;;;;5110445;27;20495;-72
2023/12/26 08:38:03;;;;;;;1.33;0.80;;;9.20;1.00;;;;;;5108912;27;20445;-73
2023/12/26 08:40:30;;;;;;;2.70;1.17;;;9.10;1.00;;;;;;5110225;27;21166;-74
2023/12/26 08:42:58;;;;;;;2.60;1.00;;;9.10;1.00;;;;;;5112659;27;20470;-74
2023/12/26 08:45:25;;;;;;;1.50;0.90;;;9.10;1.00;;;;;;5108395;27;20472;-73
2023/12/26 08:47:53;;;;;;;1.30;0.97;;;9.10;1.00;;;;;;5105195;27;20465;-72
2023/12/26 08:50:21;;;;;;;1.73;1.43;;;9.10;1.00;;;;;;5105668;27;21305;-71
2023/12/26 08:52:48;;;;;;;2.03;0.90;;;9.20;1.00;;;;;;5102812;27;20452;-71
2023/12/26 08:55:16;;;;;;;3.50;0.87;;;9.20;1.00;;;;;;5106229;27;20933;-73
2023/12/26 08:57:43;;;;;;;1.93;1.00;;;9.20;1.00;;;;;;5109545;27;20445;-71
2023/12/26 09:00:14;;;;;;;3.03;1.27;;;9.30;1.00;;;;;;5107449;27;20988;-76
2023/12/26 09:02:42;;;;;;;2.50;1.10;;;9.30;1.00;;;;;;5106579;27;21011;-75
2023/12/26 09:05:10;;;;;;;1.60;1.30;;;9.30;1.00;;;;;;5107804;27;20563;-76
2023/12/26 09:07:37;;;;;;;1.07;0.97;;;9.30;1.00;;;;;;5110618;27;20500;-75
2023/12/26 09:10:06;;;;;;;1.57;1.20;;;9.30;1.00;;;;;;5104724;27;20895;-75
2023/12/26 09:12:33;;;;;;;2.60;1.43;;;9.30;1.00;;;;;;5106119;27;20937;-75
2023/12/26 09:15:00;;;;;;;5.90;1.30;;;9.30;1.00;;;;;;5106601;27;20465;-76
2023/12/26 09:17:29;;;;;;;3.30;1.23;;;9.30;1.00;;;;;;5106350;27;20445;-75
2023/12/26 09:19:56;;;;;;;2.40;1.20;;;9.30;1.00;;;;;;5107673;27;20476;-74
2023/12/26 09:22:23;;;;;;;1.57;1.13;;;9.20;1.00;;;;;;5104771;27;20496;-76
2023/12/26 09:24:50;;;;;;;1.20;1.10;;;9.20;1.00;;;;;;5110460;27;20515;-76
2023/12/26 09:27:17;;;;;;;2.07;1.70;;;9.20;1.00;;;;;;5105212;27;21052;-76
2023/12/26 09:29:44;;;;;;;2.07;1.20;;;9.20;1.00;;;;;;5105937;27;20454;-75
2023/12/26 09:32:11;;;;;;;3.50;1.40;;;9.10;1.00;;;;;;5103722;27;20458;-75
2023/12/26 09:34:40;;;;;;;2.80;1.43;;;9.10;1.00;;;;;;5108167;27;20473;-77
2023/12/26 09:37:07;;;;;;;2.93;1.60;;;9.10;1.00;;;;;;5104726;27;20531;-77
2023/12/26 09:39:34;;;;;;;4.23;1.60;;;9.10;1.00;;;;;;5106979;27;20540;-76
2023/12/26 09:42:03;;;;;;;2.43;1.37;;;9.10;1.00;;;;;;5106819;27;20475;-76
2023/12/26 09:44:30;;;;;;;3.03;1.20;;;9.20;1.00;;;;;;5108142;27;21274;-76
2023/12/26 09:46:58;;;;;;;2.10;1.47;;;9.30;1.00;;;;;;5109028;27;20477;-75
2023/12/26 09:49:25;;;;;;;2.70;1.30;;;9.40;1.00;;;;;;5111101;27;20470;-75
2023/12/26 09:51:58;;;;;;;1.63;1.53;;;9.50;1.00;;;;;;5110757;27;20469;-76
2023/12/26 09:54:28;;;;;;;7.87;1.90;;;9.60;1.00;;;;;;5102772;27;20469;-75
2023/12/26 09:56:56;;;;;;;2.63;1.40;;;9.60;1.00;;;;;;5109078;27;20498;-74
2023/12/26 09:59:26;;;;;;;4.20;1.43;;;9.60;1.00;;;;;;5105446;27;20509;-74
2023/12/26 10:01:53;;;;;;;2.37;1.50;;;9.60;1.00;;;;;;5108093;27;20469;-75
2023/12/26 10:04:22;;;;;;;3.77;1.63;;;9.70;1.00;;;;;;5107141;27;20449;-75
2023/12/26 10:06:49;;;;;;;3.90;1.47;;;10.00;1.00;;;;;;5108976;27;20453;-74
2023/12/26 10:09:19;;;;;;;1.40;1.30;;;10.30;1.00;;;;;;5105046;27;20462;-74
2023/12/26 10:11:46;;;;;;;9.93;9.33;;;10.80;1.00;;;;;;5106555;27;20466;-75
2023/12/26 10:14:27;;;;;;;3.97;1.73;;;11.00;1.00;;;;;;5106032;27;20470;-74
2023/12/26 10:16:56;;;;;;;3.67;1.87;;;11.00;1.00;;;;;;5107276;27;21247;-75
2023/12/26 10:19:23;;;;;;;3.33;1.23;;;11.20;1.00;;;;;;5109912;27;20463;-74
2023/12/26 10:21:50;;;;;;;3.10;1.10;;;11.40;1.00;;;;;;5111131;27;20458;-74
2023/12/26 10:24:19;;;;;;;3.00;1.20;;;11.40;1.00;;;;;;5104780;27;22128;-75
2023/12/26 10:26:47;;;;;;;3.30;1.10;;;11.30;1.00;;;;;;5106677;27;20454;-75
2023/12/26 10:29:15;;;;;;;2.50;1.67;;;11.10;1.00;;;;;;5099786;27;20634;-75
2023/12/26 10:31:43;;;;;;;3.00;1.30;;;11.20;1.00;;;;;;5100610;27;20474;-74
2023/12/26 10:34:14;;;;;;;3.43;1.57;;;11.50;1.00;;;;;;5099319;27;20466;-74
2023/12/26 10:36:45;;;;;;;1.43;1.17;;;11.90;1.00;;;;;;5101579;27;20539;-74
2023/12/26 10:39:12;;;;;;;2.57;1.57;;;11.90;1.00;;;;;;5104464;27;20435;-74
2023/12/26 10:41:44;;;;;;;2.77;1.10;;;12.00;1.00;;;;;;5103975;27;20455;-75
2023/12/26 10:44:12;;;;;;;3.73;1.50;;;12.00;1.00;;;;;;5091540;27;21394;-75
2023/12/26 10:46:41;;;;;;;2.87;1.50;;;11.80;1.00;;;;;;5103578;27;20451;-77
2023/12/26 10:49:12;;;;;;;3.43;1.63;;;12.00;1.00;;;;;;5104827;27;20474;-77
2023/12/26 10:51:43;;;;;;;2.83;1.87;;;12.40;1.00;;;;;;5105956;27;20461;-77
2023/12/26 10:54:18;;;;;;;2.57;1.47;;;13.00;1.00;;;;;;5105192;27;20488;-76
2023/12/26 10:56:48;;;;;;;5.13;1.50;;;12.70;1.00;;;;;;5103232;27;20465;-75
2023/12/26 13:51:47;;;;;;;5.33;1.57;;;10.50;1.00;;;;;;5106503;27;20547;-73
2023/12/26 13:54:52;;;;;;;5.13;2.43;;;10.50;1.00;;;;;;5107531;27;20588;-73
2023/12/26 13:57:56;;;;;;;2.93;1.60;;;10.50;1.00;;;;;;5087997;27;20486;-74
2023/12/26 14:01:00;;;;;;;5.27;1.80;;;10.50;1.00;;;;;;5109425;27;20624;-73
2023/12/26 14:04:04;;;;;;;6.00;1.77;;;10.40;1.00;;;;;;5106683;27;20463;-74
2023/12/26 14:07:08;;;;;;;5.00;1.80;;;10.40;1.00;;;;;;5111005;27;20492;-73
2023/12/26 14:10:12;;;;;;;3.00;1.60;;;10.40;1.00;;;;;;5106471;27;20450;-74
2023/12/26 14:13:16;;;;;;;5.37;2.07;;;10.40;1.00;;;;;;5107148;27;20479;-73
2023/12/26 14:16:21;;;;;;;2.40;1.60;;;10.40;1.00;;;;;;5103776;27;20458;-73
2023/12/26 14:19:25;;;;;;;3.10;1.00;;;10.30;1.00;;;;;;5106323;27;20457;-74
2023/12/26 14:22:28;;;;;;;6.80;1.80;;;10.30;1.00;;;;;;5105894;27;21202;-74
2023/12/26 14:25:32;;;;;;;2.40;1.40;;;10.30;1.00;;;;;;5107441;27;20551;-79
2023/12/26 14:28:36;;;;;;;6.03;1.73;;;10.30;1.00;;;;;;5108393;27;20446;-72
2023/12/26 14:31:40;;;;;;;3.33;1.90;;;10.20;1.00;;;;;;5106971;27;20469;-75
2023/12/26 14:34:45;;;;;;;3.93;1.93;;;10.20;1.00;;;;;;5107127;27;20965;-74
2023/12/26 14:37:49;;;;;;;4.30;1.30;;;10.20;1.00;;;;;;5107105;27;20577;-75
2023/12/26 14:40:56;;;;;;;7.13;1.80;;;10.10;1.00;;;;;;5103227;27;20529;-79
2023/12/26 14:44:00;;;;;;;4.80;1.70;;;10.10;1.00;;;;;;5105602;27;20868;-74
2023/12/26 14:47:04;;;;;;;4.50;1.90;;;10.10;1.00;;;;;;5110901;27;20540;-74
2023/12/26 14:50:08;;;;;;;2.10;1.60;;;10.10;1.00;;;;;;5109168;27;20473;-72
2023/12/26 14:53:12;;;;;;;4.00;1.77;;;10.10;1.00;;;;;;5102858;27;20483;-73
2023/12/26 14:56:16;;;;;;;5.00;1.90;;;10.10;1.00;;;;;;5104369;27;20560;-73
2023/12/26 14:59:20;;;;;;;5.70;1.87;;;10.10;1.00;;;;;;5110015;27;20487;-74
2023/12/26 15:01:59;;;;;;;4.17;1.93;;;10.10;1.00;;;;;;5104296;27;20462;-74
2023/12/26 15:04:26;;;;;;;3.70;2.17;;;10.00;1.00;;;;;;5108651;27;20450;-73
2023/12/26 15:06:53;;;;;;;5.40;2.90;;;10.00;1.00;;;;;;5105137;27;20451;-73
2023/12/26 15:09:20;;;;;;;2.50;1.50;;;10.00;1.00;;;;;;5105697;27;20449;-74
2023/12/26 15:11:48;;;;;;;4.80;2.33;;;10.00;1.00;;;;;;5108015;27;20481;-74
2023/12/26 15:14:16;;;;;;;3.50;2.23;;;9.80;1.00;;;;;;5107476;27;20481;-73
2023/12/26 15:16:43;;;;;;;2.50;1.57;;;9.70;1.00;;;;;;5104830;27;21294;-72
2023/12/26 15:19:11;;;;;;;7.07;2.70;;;9.60;1.00;;;;;;5104333;27;20533;-73
2023/12/26 15:21:42;;;;;;;4.17;2.00;;;9.50;1.00;;;;;;5104114;27;20909;-73
2023/12/26 15:24:10;;;;;;;2.67;1.83;;;9.50;1.00;;;;;;5102231;27;20450;-74
2023/12/26 15:26:37;;;;;;;9.17;2.43;;;9.50;1.00;;;;;;5102118;27;20852;-79
2023/12/26 15:29:04;;;;;;;6.30;2.43;;;9.50;1.00;;;;;;5104257;27;20499;-73
2023/12/26 15:31:33;;;;;;;2.87;2.10;;;9.40;1.00;;;;;;5105030;27;20883;-74
2023/12/26 15:34:01;;;;;;;5.20;2.57;;;9.40;1.00;;;;;;5103987;27;21022;-74
2023/12/26 15:36:31;;;;;;;4.00;1.60;;;9.30;1.00;;;;;;5105611;27;20514;-74
2023/12/26 15:38:58;;;;;;;7.87;3.00;;;9.30;1.00;;;;;;5103987;27;20561;-75
2023/12/26 15:41:27;;;;;;;5.40;2.03;;;9.30;1.00;;;;;;5104565;27;20977;-75
2023/12/26 15:43:54;;;;;;;3.37;1.73;;;9.20;1.00;;;;;;5103315;27;21010;-74
2023/12/26 15:46:23;;;;;;;3.37;1.33;;;9.20;1.00;;;;;;5103833;27;20467;-74
2023/12/26 15:48:53;;;;;;;6.30;2.67;;;9.20;1.00;;;;;;5108075;27;21169;-74
2023/12/26 15:51:24;;;;;;;5.33;1.90;;;9.10;1.00;;;;;;5108389;27;20476;-74
2023/12/26 15:53:53;;;;;;;8.57;2.40;;;9.10;1.00;;;;;;5111347;27;20549;-75
2023/12/26 15:56:23;;;;;;;3.83;2.00;;;9.10;1.00;;;;;;5103661;27;25602;-73
2023/12/26 15:58:51;;;;;;;6.40;2.43;;;9.00;1.00;;;;;;5104083;27;21160;-74
2023/12/26 16:01:20;;;;;;;7.53;2.80;;;9.00;1.00;;;;;;5106180;27;20476;-74
2023/12/26 16:03:50;;;;;;;4.53;2.30;;;9.00;1.00;;;;;;5085278;27;20454;-74
2023/12/26 16:06:18;;;;;;;5.90;2.13;;;9.00;1.00;;;;;;5107221;27;20473;-74
2023/12/26 16:08:45;;;;;;;3.93;2.00;;;9.00;1.00;;;;;;5108158;27;20453;-76
2023/12/26 16:11:15;;;;;;;5.73;2.90;;;9.00;1.00;;;;;;5088710;27;20465;-76
2023/12/26 16:13:42;;;;;;;4.70;2.10;;;9.00;1.00;;;;;;5106667;27;20445;-76